createdAt,value
2018-03-04T00:00:46.808Z,96.40
2018-03-04T00:01:46.747Z,99.80
2018-03-04T00:02:46.689Z,101.40
2018-03-04T00:03:46.626Z,93.90
2018-03-04T00:04:46.563Z,92.50
2018-03-04T00:05:46.504Z,102.00
2018-03-04T00:06:46.441Z,100.50
2018-03-04T00:07:46.369Z,92.30
2018-03-04T00:08:46.319Z,101.30
2018-03-04T00:09:46.260Z,102.40
2018-03-04T00:10:46.195Z,98.10
2018-03-04T00:11:46.135Z,101.80
2018-03-04T00:12:46.073Z,99.90
2018-03-04T00:13:46.014Z,106.80
2018-03-04T00:14:45.954Z,104.40
2018-03-04T00:15:45.892Z,108.60
2018-03-04T00:16:45.829Z,107.70
2018-03-04T00:17:45.769Z,98.60
2018-03-04T00:18:45.707Z,98.80
2018-03-04T00:19:45.646Z,107.60
2018-03-04T00:20:45.583Z,110.90
2018-03-04T00:21:45.525Z,106.10
2018-03-04T00:22:45.462Z,96.60
2018-03-04T00:23:45.402Z,95.00
2018-03-04T00:24:45.339Z,105.00
2018-03-04T00:25:45.279Z,98.40
2018-03-04T00:26:45.218Z,116.60
2018-03-04T00:27:45.167Z,110.70
2018-03-04T00:28:45.094Z,104.10
2018-03-04T00:29:45.034Z,97.50
2018-03-04T00:30:44.970Z,99.20
2018-03-04T00:31:44.911Z,104.70
2018-03-04T00:32:44.857Z,91.20
2018-03-04T00:33:44.787Z,92.00
2018-03-04T00:34:44.727Z,89.70
2018-03-04T00:35:44.673Z,89.00
2018-03-04T00:36:44.639Z,80.30
2018-03-04T00:37:44.542Z,83.90
2018-03-04T00:38:44.486Z,83.60
2018-03-04T00:39:44.472Z,83.60
2018-03-04T00:40:44.361Z,77.80
2018-03-04T00:41:44.298Z,77.40
2018-03-04T00:42:44.235Z,73.80
2018-03-04T00:43:44.178Z,76.10
2018-03-04T00:44:44.115Z,80.20
2018-03-04T00:45:44.058Z,81.80
2018-03-04T00:46:44.000Z,83.20
2018-03-04T00:47:43.930Z,84.70
2018-03-04T00:48:43.868Z,82.00
2018-03-04T00:49:43.808Z,86.70
2018-03-04T00:50:43.748Z,78.00
2018-03-04T00:51:43.690Z,81.20
2018-03-04T00:52:43.625Z,81.90
2018-03-04T00:53:43.563Z,80.10
2018-03-04T00:54:43.502Z,79.50
2018-03-04T00:55:43.441Z,84.20
2018-03-04T00:56:43.378Z,88.30
2018-03-04T00:57:43.319Z,83.40
2018-03-04T00:58:43.257Z,79.30
2018-03-04T00:59:43.196Z,84.90
2018-03-04T01:00:43.137Z,84.50
2018-03-04T01:01:43.078Z,80.30
2018-03-04T01:02:43.011Z,81.60
2018-03-04T01:03:42.951Z,85.10
2018-03-04T01:04:42.890Z,85.40
2018-03-04T01:05:42.833Z,92.50
2018-03-04T01:06:42.764Z,89.40
2018-03-04T01:07:42.706Z,91.30
2018-03-04T01:08:42.646Z,97.70
2018-03-04T01:09:42.582Z,94.90
2018-03-04T01:10:42.522Z,93.40
2018-03-04T01:11:42.459Z,98.10
2018-03-04T01:12:42.396Z,95.30
2018-03-04T01:13:42.338Z,91.10
2018-03-04T01:14:42.274Z,101.80
2018-03-04T01:15:42.218Z,106.60
2018-03-04T01:16:42.150Z,106.50
2018-03-04T01:17:43.033Z,111.10
2018-03-04T01:18:42.029Z,126.10
2018-03-04T01:19:41.966Z,130.20
2018-03-04T01:20:41.905Z,130.60
2018-03-04T01:21:41.846Z,140.80
2018-03-04T01:22:41.788Z,113.40
2018-03-04T01:23:41.719Z,125.80
2018-03-04T01:24:41.656Z,122.90
2018-03-04T01:25:41.596Z,122.70
2018-03-04T01:26:41.532Z,130.30
2018-03-04T01:27:41.470Z,130.60
2018-03-04T01:28:41.411Z,123.20
2018-03-04T01:29:41.348Z,117.60
2018-03-04T01:30:41.287Z,129.20
2018-03-04T01:31:41.226Z,134.50
2018-03-04T01:32:41.162Z,128.80
2018-03-04T01:33:41.107Z,121.20
2018-03-04T01:34:41.037Z,127.50
2018-03-04T01:35:40.978Z,125.00
2018-03-04T01:36:40.915Z,121.70
2018-03-04T01:37:40.853Z,138.20
2018-03-04T01:38:40.793Z,127.90
2018-03-04T01:39:40.728Z,123.00
2018-03-04T01:40:40.667Z,124.90
2018-03-04T01:41:40.606Z,128.90
2018-03-04T01:42:40.562Z,138.20
2018-03-04T01:43:40.478Z,134.60
2018-03-04T01:44:40.423Z,140.40
2018-03-04T01:45:40.358Z,155.40
2018-03-04T01:46:40.295Z,157.00
2018-03-04T01:47:40.238Z,155.50
2018-03-04T01:48:40.171Z,153.60
2018-03-04T01:49:40.109Z,154.20
2018-03-04T01:50:40.047Z,141.10
2018-03-04T01:51:39.986Z,139.20
2018-03-04T01:52:39.928Z,136.60
2018-03-04T01:53:39.862Z,138.70
2018-03-04T01:54:39.803Z,132.40
2018-03-04T01:55:39.741Z,143.30
2018-03-04T01:56:39.678Z,154.00
2018-03-04T01:57:39.614Z,164.60
2018-03-04T01:58:39.552Z,154.10
2018-03-04T01:59:39.490Z,170.50
2018-03-04T02:00:39.431Z,161.40
2018-03-04T02:01:39.368Z,157.40
2018-03-04T02:02:39.306Z,158.80
2018-03-04T02:03:39.244Z,157.10
2018-03-04T02:04:39.183Z,160.60
2018-03-04T02:05:39.119Z,154.50
2018-03-04T02:06:39.058Z,147.20
2018-03-04T02:07:39.000Z,133.10
2018-03-04T02:08:38.936Z,136.70
2018-03-04T02:09:38.873Z,134.60
2018-03-04T02:10:38.810Z,132.40
2018-03-04T02:11:38.750Z,126.20
2018-03-04T02:12:38.687Z,119.70
2018-03-04T02:13:38.628Z,124.90
2018-03-04T02:14:38.565Z,121.70
2018-03-04T02:15:38.502Z,118.60
2018-03-04T02:16:38.442Z,125.30
2018-03-04T02:17:38.381Z,109.40
2018-03-04T02:18:38.317Z,101.40
2018-03-04T02:19:38.257Z,110.20
2018-03-04T02:20:38.197Z,106.40
2018-03-04T02:21:38.133Z,103.60
2018-03-04T02:22:38.072Z,101.70
2018-03-04T02:23:38.010Z,98.40
2018-03-04T02:24:37.947Z,97.20
2018-03-04T02:25:37.887Z,92.80
2018-03-04T02:26:37.826Z,88.40
2018-03-04T02:27:37.764Z,93.90
2018-03-04T02:28:37.709Z,87.20
2018-03-04T02:29:37.641Z,87.70
2018-03-04T02:30:37.581Z,85.40
2018-03-04T02:31:37.517Z,88.50
2018-03-04T02:32:37.458Z,89.80
2018-03-04T02:33:37.396Z,92.50
2018-03-04T02:34:37.332Z,91.50
2018-03-04T02:35:37.272Z,95.30
2018-03-04T02:36:37.211Z,95.20
2018-03-04T02:37:37.151Z,90.60
2018-03-04T02:38:37.088Z,88.40
2018-03-04T02:39:37.027Z,91.80
2018-03-04T02:40:36.968Z,95.60
2018-03-04T02:41:36.902Z,87.10
2018-03-04T02:42:36.846Z,84.90
2018-03-04T02:43:36.780Z,95.40
2018-03-04T02:44:36.721Z,94.60
2018-03-04T02:45:36.657Z,92.90
2018-03-04T02:46:36.595Z,92.10
2018-03-04T02:47:36.536Z,89.30
2018-03-04T02:48:36.477Z,96.30
2018-03-04T02:49:36.409Z,99.50
2018-03-04T02:50:36.348Z,92.30
2018-03-04T02:51:36.290Z,96.60
2018-03-04T02:52:36.226Z,90.70
2018-03-04T02:53:36.168Z,85.80
2018-03-04T02:54:36.105Z,93.30
2018-03-04T02:55:36.045Z,91.90
2018-03-04T02:56:35.981Z,113.90
2018-03-04T02:57:35.919Z,101.30
2018-03-04T02:58:35.857Z,95.20
2018-03-04T02:59:35.796Z,105.00
2018-03-04T03:00:35.735Z,103.30
2018-03-04T03:01:35.673Z,105.50
2018-03-04T03:02:35.616Z,107.10
2018-03-04T03:03:35.549Z,116.20
2018-03-04T03:04:35.487Z,109.20
2018-03-04T03:05:35.426Z,116.10
2018-03-04T03:06:35.364Z,116.30
2018-03-04T03:07:35.308Z,119.60
2018-03-04T03:08:35.242Z,123.00
2018-03-04T03:09:35.181Z,129.70
2018-03-04T03:10:35.120Z,128.60
2018-03-04T03:11:35.059Z,128.90
2018-03-04T03:12:34.997Z,120.30
2018-03-04T03:13:34.934Z,125.80
2018-03-04T03:14:34.869Z,136.20
2018-03-04T03:15:34.811Z,125.80
2018-03-04T03:16:34.749Z,142.20
2018-03-04T03:17:34.690Z,134.20
2018-03-04T03:18:34.627Z,138.70
2018-03-04T03:19:34.564Z,145.20
2018-03-04T03:20:34.505Z,136.00
2018-03-04T03:21:34.443Z,139.30
2018-03-04T03:22:34.381Z,143.50
2018-03-04T03:23:34.320Z,143.90
2018-03-04T03:24:34.258Z,144.40
2018-03-04T03:25:34.212Z,155.60
2018-03-04T03:26:34.134Z,145.90
2018-03-04T03:27:34.073Z,154.40
2018-03-04T03:28:34.015Z,159.40
2018-03-04T03:29:33.950Z,154.70
2018-03-04T03:30:33.889Z,163.80
2018-03-04T03:31:33.828Z,157.30
2018-03-04T03:32:33.767Z,156.20
2018-03-04T03:33:33.778Z,154.80
2018-03-04T03:34:33.643Z,157.20
2018-03-04T03:35:33.577Z,162.90
2018-03-04T03:36:33.528Z,165.10
2018-03-04T03:37:33.458Z,152.00
2018-03-04T03:38:33.396Z,154.70
2018-03-04T03:39:33.335Z,146.60
2018-03-04T03:40:33.274Z,169.60
2018-03-04T03:41:33.209Z,157.50
2018-03-04T03:42:33.148Z,157.90
2018-03-04T03:43:33.087Z,161.90
2018-03-04T03:44:33.035Z,157.70
2018-03-04T03:45:32.965Z,147.80
2018-03-04T03:46:32.900Z,156.90
2018-03-04T03:47:32.840Z,162.60
2018-03-04T03:48:32.780Z,166.30
2018-03-04T03:49:32.718Z,159.70
2018-03-04T03:50:32.652Z,157.40
2018-03-04T03:51:32.592Z,170.90
2018-03-04T03:52:32.532Z,168.20
2018-03-04T03:53:32.469Z,159.00
2018-03-04T03:54:32.407Z,153.30
2018-03-04T03:55:32.343Z,156.60
2018-03-04T03:56:32.285Z,164.20
2018-03-04T03:57:32.219Z,153.00
2018-03-04T03:58:32.158Z,146.10
2018-03-04T03:59:32.096Z,137.60
2018-03-04T04:00:32.034Z,147.20
2018-03-04T04:01:31.973Z,137.00
2018-03-04T04:02:31.912Z,132.20
2018-03-04T04:03:31.846Z,120.20
2018-03-04T04:04:31.783Z,122.10
2018-03-04T04:05:31.724Z,132.40
2018-03-04T04:06:31.662Z,129.80
2018-03-04T04:07:31.601Z,118.80
2018-03-04T04:08:31.536Z,127.10
2018-03-04T04:09:31.476Z,132.90
2018-03-04T04:10:31.416Z,138.70
2018-03-04T04:11:31.357Z,139.80
2018-03-04T04:12:31.290Z,150.20
2018-03-04T04:13:31.230Z,149.60
2018-03-04T04:14:31.164Z,142.30
2018-03-04T04:15:31.103Z,139.90
2018-03-04T04:16:31.041Z,141.90
2018-03-04T04:17:30.982Z,151.20
2018-03-04T04:18:30.918Z,147.90
2018-03-04T04:19:30.855Z,153.20
2018-03-04T04:20:30.793Z,147.20
2018-03-04T04:21:30.732Z,151.80
2018-03-04T04:22:30.671Z,155.30
2018-03-04T04:23:30.605Z,150.20
2018-03-04T04:24:30.547Z,155.50
2018-03-04T04:25:30.487Z,146.10
2018-03-04T04:26:30.426Z,148.40
2018-03-04T04:27:30.360Z,154.00
2018-03-04T04:28:30.301Z,148.00
2018-03-04T04:29:30.243Z,160.00
2018-03-04T04:30:30.175Z,152.50
2018-03-04T04:31:30.116Z,146.60
2018-03-04T04:32:30.048Z,148.20
2018-03-04T04:33:29.987Z,155.00
2018-03-04T04:34:29.928Z,145.30
2018-03-04T04:35:29.862Z,150.60
2018-03-04T04:36:29.802Z,159.20
2018-03-04T04:37:29.740Z,153.30
2018-03-04T04:38:29.678Z,150.00
2018-03-04T04:39:29.614Z,159.30
2018-03-04T04:40:29.552Z,157.10
2018-03-04T04:41:29.492Z,162.70
2018-03-04T04:42:29.430Z,144.60
2018-03-04T04:43:29.367Z,155.10
2018-03-04T04:44:29.304Z,160.00
2018-03-04T04:45:29.245Z,165.10
2018-03-04T04:46:29.181Z,164.70
2018-03-04T04:47:29.122Z,170.10
2018-03-04T04:48:29.058Z,161.70
2018-03-04T04:49:28.996Z,165.40
2018-03-04T04:50:28.935Z,153.40
2018-03-04T04:51:28.874Z,147.90
2018-03-04T04:52:28.815Z,154.90
2018-03-04T04:53:28.752Z,161.70
2018-03-04T04:54:28.687Z,154.30
2018-03-04T04:55:28.624Z,142.10
2018-03-04T04:56:28.562Z,151.80
2018-03-04T04:57:28.501Z,152.50
2018-03-04T04:58:28.438Z,171.20
2018-03-04T04:59:28.375Z,175.50
2018-03-04T05:00:28.316Z,175.90
2018-03-04T05:01:28.255Z,163.40
2018-03-04T05:02:28.191Z,152.00
2018-03-04T05:03:28.173Z,156.50
2018-03-04T05:04:28.070Z,169.70
2018-03-04T05:05:28.007Z,145.20
2018-03-04T05:06:27.943Z,140.70
2018-03-04T05:07:27.897Z,140.40
2018-03-04T05:08:27.820Z,143.70
2018-03-04T05:09:27.758Z,168.00
2018-03-04T05:10:27.695Z,171.80
2018-03-04T05:11:27.637Z,147.30
2018-03-04T05:12:27.574Z,131.50
2018-03-04T05:13:27.512Z,144.60
2018-03-04T05:14:27.451Z,147.00
2018-03-04T05:15:27.389Z,145.50
2018-03-04T05:16:27.325Z,160.70
2018-03-04T05:17:27.266Z,162.50
2018-03-04T05:18:27.198Z,179.30
2018-03-04T05:19:27.138Z,205.40
2018-03-04T05:20:27.074Z,215.20
2018-03-04T05:21:27.014Z,215.80
2018-03-04T05:22:26.950Z,291.70
2018-03-04T05:23:26.890Z,348.30
2018-03-04T05:24:26.826Z,421.80
2018-03-04T05:25:26.766Z,405.20
2018-03-04T05:26:26.701Z,522.10
2018-03-04T05:27:26.641Z,608.90
2018-03-04T05:28:26.580Z,580.00
2018-03-04T05:29:26.516Z,587.40
2018-03-04T05:30:26.466Z,606.00
2018-03-04T05:31:26.394Z,626.30
2018-03-04T05:32:26.331Z,643.60
2018-03-04T05:33:26.268Z,540.60
2018-03-04T05:34:26.205Z,619.00
2018-03-04T05:35:26.148Z,492.90
2018-03-04T05:36:26.080Z,436.90
2018-03-04T05:37:26.018Z,495.70
2018-03-04T05:38:25.955Z,480.40
2018-03-04T05:39:25.892Z,471.90
2018-03-04T05:40:25.830Z,442.10
2018-03-04T05:41:25.767Z,508.90
2018-03-04T05:42:25.704Z,480.60
2018-03-04T05:43:25.645Z,385.20
2018-03-04T05:44:25.581Z,409.00
2018-03-04T05:45:25.524Z,476.50
2018-03-04T05:46:25.455Z,487.70
2018-03-04T05:47:25.394Z,629.50
2018-03-04T05:48:25.335Z,604.40
2018-03-04T05:49:25.268Z,623.70
2018-03-04T05:50:25.207Z,661.90
2018-03-04T05:51:25.143Z,751.60
2018-03-04T05:52:25.082Z,650.30
2018-03-04T05:53:25.020Z,596.30
2018-03-04T05:54:24.959Z,579.80
2018-03-04T05:55:24.894Z,668.30
2018-03-04T05:56:24.837Z,736.90
2018-03-04T05:57:24.769Z,700.30
2018-03-04T05:58:24.706Z,717.30
2018-03-04T05:59:24.644Z,690.60
2018-03-04T06:00:24.580Z,535.50
2018-03-04T06:01:24.518Z,532.70
2018-03-04T06:02:24.456Z,547.10
2018-03-04T06:03:24.395Z,627.40
2018-03-04T06:04:24.331Z,606.60
2018-03-04T06:05:24.268Z,614.50
2018-03-04T06:06:24.205Z,599.30
2018-03-04T06:07:24.142Z,551.20
2018-03-04T06:08:24.080Z,483.40
2018-03-04T06:09:24.022Z,488.20
2018-03-04T06:10:23.956Z,532.40
2018-03-04T06:11:23.892Z,577.10
2018-03-04T06:12:23.831Z,509.90
2018-03-04T06:13:23.769Z,474.40
2018-03-04T06:14:23.706Z,523.10
2018-03-04T06:15:23.642Z,510.00
2018-03-04T06:16:23.580Z,562.10
2018-03-04T06:17:23.520Z,609.30
2018-03-04T06:18:23.454Z,519.90
2018-03-04T06:19:23.413Z,531.50
2018-03-04T06:20:23.334Z,616.80
2018-03-04T06:21:23.267Z,531.10
2018-03-04T06:22:23.206Z,491.20
2018-03-04T06:23:23.143Z,444.20
2018-03-04T06:24:23.080Z,454.90
2018-03-04T06:25:23.017Z,479.40
2018-03-04T06:26:22.954Z,476.70
2018-03-04T06:27:22.892Z,566.40
2018-03-04T06:28:22.830Z,576.00
2018-03-04T06:29:22.768Z,506.70
2018-03-04T06:30:22.704Z,503.40
2018-03-04T06:31:22.646Z,441.30
2018-03-04T06:32:22.579Z,440.00
2018-03-04T06:33:22.531Z,422.40
2018-03-04T06:34:22.453Z,442.20
2018-03-04T06:35:22.391Z,451.20
2018-03-04T06:36:22.333Z,459.80
2018-03-04T06:37:22.266Z,391.60
2018-03-04T06:38:22.203Z,426.90
2018-03-04T06:39:22.140Z,376.10
2018-03-04T06:40:22.078Z,371.70
2018-03-04T06:41:22.017Z,410.50
2018-03-04T06:42:21.953Z,419.60
2018-03-04T06:43:21.890Z,402.40
2018-03-04T06:44:21.829Z,492.40
2018-03-04T06:45:21.767Z,461.40
2018-03-04T06:46:21.704Z,342.00
2018-03-04T06:47:21.642Z,344.40
2018-03-04T06:48:21.577Z,389.50
2018-03-04T06:49:21.518Z,404.50
2018-03-04T06:50:21.459Z,393.00
2018-03-04T06:51:21.391Z,400.70
2018-03-04T06:52:21.328Z,466.60
2018-03-04T06:53:21.266Z,406.30
2018-03-04T06:54:21.204Z,382.90
2018-03-04T06:55:21.144Z,413.70
2018-03-04T06:56:21.082Z,382.20
2018-03-04T06:57:21.017Z,428.60
2018-03-04T06:58:20.955Z,340.30
2018-03-04T06:59:20.894Z,338.60
2018-03-04T07:00:20.831Z,411.50
2018-03-04T07:01:20.770Z,353.30
2018-03-04T07:02:20.705Z,359.20
2018-03-04T07:03:20.645Z,338.40
2018-03-04T07:04:20.586Z,362.80
2018-03-04T07:05:20.520Z,409.20
2018-03-04T07:06:20.459Z,331.00
2018-03-04T07:07:20.395Z,320.20
2018-03-04T07:08:20.336Z,400.50
2018-03-04T07:09:20.272Z,315.80
2018-03-04T07:10:20.209Z,380.70
2018-03-04T07:11:20.148Z,342.90
2018-03-04T07:12:20.090Z,300.10
2018-03-04T07:13:20.024Z,322.40
2018-03-04T07:14:19.961Z,393.80
2018-03-04T07:15:19.902Z,384.50
2018-03-04T07:16:19.834Z,433.20
2018-03-04T07:17:19.778Z,375.00
2018-03-04T07:18:19.713Z,385.80
2018-03-04T07:19:19.650Z,424.50
2018-03-04T07:20:19.589Z,348.30
2018-03-04T07:21:19.534Z,388.40
2018-03-04T07:22:19.462Z,362.80
2018-03-04T07:23:19.400Z,350.30
2018-03-04T07:24:19.345Z,398.30
2018-03-04T07:25:19.277Z,380.30
2018-03-04T07:26:19.217Z,422.50
2018-03-04T07:27:19.153Z,403.40
2018-03-04T07:28:19.089Z,396.10
2018-03-04T07:29:19.031Z,463.20
2018-03-04T07:30:18.967Z,487.30
2018-03-04T07:31:18.902Z,532.80
2018-03-04T07:32:18.840Z,553.80
2018-03-04T07:33:18.786Z,523.20
2018-03-04T07:34:18.717Z,360.20
2018-03-04T07:35:18.654Z,407.20
2018-03-04T07:36:18.595Z,455.60
2018-03-04T07:37:18.531Z,456.40
2018-03-04T07:38:18.466Z,385.70
2018-03-04T07:39:18.410Z,540.50
2018-03-04T07:40:18.343Z,423.30
2018-03-04T07:41:18.282Z,408.20
2018-03-04T07:42:18.218Z,402.30
2018-03-04T07:43:18.165Z,405.20
2018-03-04T07:44:18.093Z,379.90
2018-03-04T07:45:18.030Z,299.60
2018-03-04T07:46:17.970Z,287.10
2018-03-04T07:47:17.953Z,354.20
2018-03-04T07:48:17.847Z,351.70
2018-03-04T07:49:17.782Z,364.50
2018-03-04T07:50:17.721Z,343.30
2018-03-04T07:51:17.659Z,258.00
2018-03-04T07:52:17.598Z,276.10
2018-03-04T07:53:17.534Z,350.80
2018-03-04T07:54:17.473Z,448.10
2018-03-04T07:55:17.410Z,347.30
2018-03-04T07:56:17.349Z,383.90
2018-03-04T07:57:17.288Z,387.50
2018-03-04T07:58:17.226Z,317.70
2018-03-04T07:59:17.161Z,366.20
2018-03-04T08:00:17.104Z,236.10
2018-03-04T08:01:17.040Z,266.90
2018-03-04T08:02:16.977Z,288.60
2018-03-04T08:03:16.914Z,240.30
2018-03-04T08:04:16.857Z,254.40
2018-03-04T08:05:16.791Z,334.10
2018-03-04T08:06:16.729Z,166.80
2018-03-04T08:07:16.674Z,170.20
2018-03-04T08:08:16.604Z,246.60
2018-03-04T08:09:16.540Z,180.00
2018-03-04T08:10:16.483Z,145.10
2018-03-04T08:11:16.420Z,134.40
2018-03-04T08:12:16.360Z,171.40
2018-03-04T08:13:16.301Z,280.10
2018-03-04T08:14:16.236Z,222.50
2018-03-04T08:15:16.173Z,217.40
2018-03-04T08:16:16.112Z,229.70
2018-03-04T08:17:16.055Z,197.60
2018-03-04T08:18:15.991Z,197.00
2018-03-04T08:19:15.931Z,166.60
2018-03-04T08:20:15.868Z,174.20
2018-03-04T08:21:15.810Z,239.60
2018-03-04T08:22:15.747Z,208.60
2018-03-04T08:23:15.685Z,223.90
2018-03-04T08:24:15.625Z,194.30
2018-03-04T08:25:15.566Z,190.80
2018-03-04T08:26:15.503Z,132.40
2018-03-04T08:27:15.440Z,115.50
2018-03-04T08:28:15.382Z,218.10
2018-03-04T08:29:15.318Z,208.20
2018-03-04T08:30:15.257Z,302.70
2018-03-04T08:31:15.198Z,277.90
2018-03-04T08:32:15.137Z,221.40
2018-03-04T08:33:15.076Z,230.10
2018-03-04T08:34:15.015Z,286.80
2018-03-04T08:35:14.952Z,219.50
2018-03-04T08:36:14.907Z,209.50
2018-03-04T08:37:14.831Z,215.00
2018-03-04T08:38:14.769Z,219.30
2018-03-04T08:39:14.706Z,238.70
2018-03-04T08:40:14.649Z,178.50
2018-03-04T08:41:14.588Z,202.10
2018-03-04T08:42:14.524Z,151.50
2018-03-04T08:43:14.463Z,152.90
2018-03-04T08:44:14.404Z,179.90
2018-03-04T08:45:14.343Z,284.40
2018-03-04T08:46:14.282Z,249.30
2018-03-04T08:47:14.220Z,189.90
2018-03-04T08:48:14.157Z,338.10
2018-03-04T08:49:14.097Z,225.20
2018-03-04T08:50:14.037Z,241.20
2018-03-04T08:51:13.976Z,187.10
2018-03-04T08:52:13.915Z,246.00
2018-03-04T08:53:13.854Z,314.90
2018-03-04T08:54:13.794Z,297.30
2018-03-04T08:55:13.732Z,183.50
2018-03-04T08:56:13.674Z,132.80
2018-03-04T08:57:13.611Z,154.20
2018-03-04T08:58:13.550Z,276.40
2018-03-04T08:59:13.499Z,210.10
2018-03-04T09:00:13.437Z,180.70
2018-03-04T09:01:13.372Z,161.30
2018-03-04T09:02:13.347Z,103.60
2018-03-04T09:03:13.245Z,170.90
2018-03-04T09:04:13.183Z,95.40
2018-03-04T09:05:13.126Z,72.60
2018-03-04T09:06:13.077Z,136.70
2018-03-04T09:07:13.009Z,100.60
2018-03-04T09:08:12.942Z,112.20
2018-03-04T09:09:12.882Z,182.70
2018-03-04T09:10:12.823Z,181.70
2018-03-04T09:11:12.762Z,209.40
2018-03-04T09:12:12.698Z,224.30
2018-03-04T09:13:12.637Z,206.90
2018-03-04T09:14:12.578Z,123.20
2018-03-04T09:15:12.518Z,154.30
2018-03-04T09:16:12.458Z,149.60
2018-03-04T09:17:12.400Z,197.90
2018-03-04T09:18:12.336Z,104.40
2018-03-04T09:19:12.275Z,92.00
2018-03-04T09:20:12.214Z,68.50
2018-03-04T09:21:12.155Z,72.80
2018-03-04T09:22:12.093Z,78.80
2018-03-04T09:23:12.034Z,142.20
2018-03-04T09:24:11.976Z,148.80
2018-03-04T09:25:11.914Z,113.10
2018-03-04T09:26:11.852Z,113.40
2018-03-04T09:27:11.793Z,188.60
2018-03-04T09:28:11.733Z,140.90
2018-03-04T09:29:11.671Z,138.30
2018-03-04T09:30:11.611Z,108.30
2018-03-04T09:31:11.551Z,118.20
2018-03-04T09:32:11.490Z,103.10
2018-03-04T09:33:11.450Z,104.50
2018-03-04T09:34:11.379Z,105.10
2018-03-04T09:35:11.311Z,81.20
2018-03-04T09:36:11.252Z,64.10
2018-03-04T09:37:11.191Z,64.40
2018-03-04T09:38:11.131Z,79.20
2018-03-04T09:39:11.072Z,102.10
2018-03-04T09:40:11.010Z,91.30
2018-03-04T09:41:10.950Z,58.20
2018-03-04T09:42:10.891Z,59.10
2018-03-04T09:43:10.832Z,52.40
2018-03-04T09:44:10.769Z,59.70
2018-03-04T09:45:10.710Z,51.70
2018-03-04T09:46:10.653Z,61.60
2018-03-04T09:47:10.591Z,53.60
2018-03-04T09:48:10.531Z,59.40
2018-03-04T09:49:10.472Z,52.30
2018-03-04T09:50:10.411Z,97.80
2018-03-04T09:51:10.355Z,57.60
2018-03-04T09:52:10.292Z,59.80
2018-03-04T09:53:10.231Z,93.70
2018-03-04T09:54:10.171Z,110.00
2018-03-04T09:55:10.114Z,80.00
2018-03-04T09:56:10.055Z,147.80
2018-03-04T09:57:09.995Z,58.70
2018-03-04T09:58:09.935Z,61.80
2018-03-04T09:59:09.876Z,51.70
2018-03-04T10:00:09.816Z,67.10
2018-03-04T10:01:09.758Z,64.00
2018-03-04T10:02:09.714Z,51.80
2018-03-04T10:03:09.640Z,50.10
2018-03-04T10:04:09.580Z,51.80
2018-03-04T10:05:09.520Z,63.70
2018-03-04T10:06:09.460Z,51.90
2018-03-04T10:07:09.406Z,49.70
2018-03-04T10:08:09.342Z,51.80
2018-03-04T10:09:09.287Z,53.70
2018-03-04T10:10:09.225Z,52.30
2018-03-04T10:11:09.164Z,49.30
2018-03-04T10:12:09.106Z,54.20
2018-03-04T10:13:09.048Z,52.00
2018-03-04T10:14:08.992Z,49.70
2018-03-04T10:15:08.932Z,48.90
2018-03-04T10:16:08.869Z,52.20
2018-03-04T10:17:08.810Z,48.00
2018-03-04T10:18:08.750Z,49.50
2018-03-04T10:19:08.690Z,52.00
2018-03-04T10:20:08.632Z,48.00
2018-03-04T10:21:08.572Z,45.40
2018-03-04T10:22:08.513Z,44.00
2018-03-04T10:23:08.453Z,42.30
2018-03-04T10:24:08.398Z,45.20
2018-03-04T10:25:08.338Z,47.00
2018-03-04T10:26:08.326Z,40.30
2018-03-04T10:27:08.221Z,43.50
2018-03-04T10:28:08.160Z,45.00
2018-03-04T10:29:08.102Z,44.70
2018-03-04T10:30:08.039Z,47.00
2018-03-04T10:31:07.983Z,42.40
2018-03-04T10:32:07.923Z,43.40
2018-03-04T10:33:07.863Z,38.70
2018-03-04T10:34:07.802Z,47.70
2018-03-04T10:35:07.746Z,37.80
2018-03-04T10:36:07.686Z,44.00
2018-03-04T10:37:07.627Z,38.30
2018-03-04T10:38:07.572Z,33.40
2018-03-04T10:39:07.509Z,33.20
2018-03-04T10:40:07.449Z,32.40
2018-03-04T10:41:07.391Z,31.10
2018-03-04T10:42:07.330Z,30.30
2018-03-04T10:43:07.274Z,32.20
2018-03-04T10:44:07.215Z,34.60
2018-03-04T10:45:07.153Z,32.60
2018-03-04T10:46:07.101Z,31.90
2018-03-04T10:47:07.035Z,30.20
2018-03-04T10:48:06.977Z,31.70
2018-03-04T10:49:06.917Z,31.80
2018-03-04T10:50:06.860Z,29.20
2018-03-04T10:51:06.799Z,32.60
2018-03-04T10:52:06.742Z,31.20
2018-03-04T10:53:06.681Z,29.10
2018-03-04T10:54:06.622Z,28.90
2018-03-04T10:55:06.562Z,30.00
2018-03-04T10:56:06.503Z,32.90
2018-03-04T10:57:06.446Z,29.50
2018-03-04T10:58:06.388Z,29.90
2018-03-04T10:59:06.326Z,33.30
2018-03-04T11:00:06.268Z,33.70
2018-03-04T11:01:06.215Z,31.80
2018-03-04T11:02:06.148Z,30.90
2018-03-04T11:03:06.090Z,30.80
2018-03-04T11:04:06.032Z,32.00
2018-03-04T11:05:05.978Z,32.20
2018-03-04T11:06:05.912Z,34.70
2018-03-04T11:07:05.847Z,31.70
2018-03-04T11:08:05.796Z,34.90
2018-03-04T11:09:05.745Z,34.10
2018-03-04T11:10:05.677Z,32.80
2018-03-04T11:11:05.618Z,30.80
2018-03-04T11:12:05.564Z,33.20
2018-03-04T11:13:05.502Z,32.70
2018-03-04T11:14:05.443Z,31.80
2018-03-04T11:15:05.384Z,31.40
2018-03-04T11:16:05.327Z,28.80
2018-03-04T11:17:05.267Z,32.20
2018-03-04T11:18:05.208Z,30.80
2018-03-04T11:19:05.150Z,29.70
2018-03-04T11:20:05.092Z,30.60
2018-03-04T11:21:05.033Z,29.50
2018-03-04T11:22:04.974Z,29.10
2018-03-04T11:23:04.915Z,31.00
2018-03-04T11:24:04.858Z,27.00
2018-03-04T11:25:04.809Z,27.80
2018-03-04T11:26:04.739Z,28.50
2018-03-04T11:27:04.686Z,29.10
2018-03-04T11:28:04.627Z,28.60
2018-03-04T11:29:04.566Z,29.80
2018-03-04T11:30:04.508Z,29.10
2018-03-04T11:31:04.446Z,28.80
2018-03-04T11:32:04.390Z,29.00
2018-03-04T11:33:04.331Z,27.80
2018-03-04T11:34:04.272Z,29.60
2018-03-04T11:35:04.220Z,28.90
2018-03-04T11:36:04.155Z,25.40
2018-03-04T11:37:04.095Z,27.40
2018-03-04T11:38:04.036Z,30.70
2018-03-04T11:39:04.012Z,28.10
2018-03-04T11:40:03.925Z,30.00
2018-03-04T11:41:03.863Z,30.50
2018-03-04T11:42:03.801Z,31.30
2018-03-04T11:43:03.744Z,29.90
2018-03-04T11:44:03.686Z,31.10
2018-03-04T11:45:03.653Z,32.40
2018-03-04T11:46:03.569Z,28.20
2018-03-04T11:47:03.508Z,28.40
2018-03-04T11:48:03.448Z,27.60
2018-03-04T11:49:03.391Z,27.90
2018-03-04T11:50:03.330Z,27.50
2018-03-04T11:51:03.273Z,29.60
2018-03-04T11:52:03.216Z,28.00
2018-03-04T11:53:03.156Z,27.30
2018-03-04T11:54:03.094Z,26.80
2018-03-04T11:55:03.036Z,26.30
2018-03-04T11:56:02.976Z,26.60
2018-03-04T11:57:02.919Z,28.10
2018-03-04T11:58:02.861Z,28.90
2018-03-04T11:59:02.800Z,31.30
2018-03-04T12:00:02.746Z,30.90
2018-03-04T12:01:02.687Z,32.70
2018-03-04T12:02:02.621Z,31.20
2018-03-04T12:03:02.565Z,31.20
2018-03-04T12:04:02.507Z,32.30
2018-03-04T12:05:02.453Z,30.20
2018-03-04T12:06:02.387Z,32.10
2018-03-04T12:07:02.329Z,31.80
2018-03-04T12:08:02.270Z,31.30
2018-03-04T12:09:02.211Z,29.70
2018-03-04T12:10:02.148Z,32.80
2018-03-04T12:11:02.087Z,30.50
2018-03-04T12:12:02.030Z,33.80
2018-03-04T12:13:01.970Z,31.50
2018-03-04T12:14:01.910Z,32.20
2018-03-04T12:15:01.853Z,30.40
2018-03-04T12:16:01.792Z,32.30
2018-03-04T12:17:01.731Z,30.60
2018-03-04T12:18:01.673Z,30.20
2018-03-04T12:19:01.613Z,31.80
2018-03-04T12:20:01.544Z,33.80
2018-03-04T12:21:01.493Z,29.70
2018-03-04T12:22:01.435Z,31.00
2018-03-04T12:23:01.374Z,35.50
2018-03-04T12:24:01.328Z,32.60
2018-03-04T12:25:01.256Z,29.80
2018-03-04T12:26:01.196Z,29.60
2018-03-04T12:27:01.136Z,31.50
2018-03-04T12:28:01.077Z,30.00
2018-03-04T12:29:01.018Z,30.20
2018-03-04T12:30:00.957Z,30.70
2018-03-04T12:31:00.903Z,30.70
2018-03-04T12:32:00.838Z,29.00
2018-03-04T12:33:00.780Z,27.70
2018-03-04T12:34:00.720Z,30.10
2018-03-04T12:35:00.659Z,27.90
2018-03-04T12:36:00.605Z,26.30
2018-03-04T12:37:00.541Z,26.50